Time;durP1;ratioP1;P1;durP2;ratioP2;P2;SDS_P1;SDS_P2;PMS_P1;PMS_P2;Temp;Humidity;BMP_temperature;BMP_pressure;BME280_temperature;BME280_humidity;BME280_pressure;Samples;Min_cycle;Max_cycle;Signal;HPM_P1;HPM_P2
2022/03/10 00:02:24;;;;;;;47.78;24.08;;;;;;;7.34;41.21;102211.56;5070715;28;20098;-63
2022/03/10 00:04:51;;;;;;;41.95;23.25;;;;;;;7.32;41.35;102210.72;5069255;28;20048;-63
2022/03/10 00:07:18;;;;;;;43.97;22.83;;;;;;;7.28;41.43;102209.06;5070219;28;20123;-63
2022/03/10 00:09:45;;;;;;;46.38;24.48;;;;;;;7.22;41.63;102208.34;5070076;28;20051;-63
2022/03/10 00:12:12;;;;;;;52.20;25.48;;;;;;;7.20;41.69;102210.97;5070321;28;20048;-63
2022/03/10 00:14:40;;;;;;;46.75;24.50;;;;;;;7.20;42.01;102213.59;5070153;28;20047;-63
2022/03/10 00:17:06;;;;;;;42.15;23.33;;;;;;;7.16;42.03;102212.78;5069967;28;20556;-63
2022/03/10 00:19:34;;;;;;;45.03;23.02;;;;;;;7.10;42.21;102210.28;5051672;28;20052;-62
2022/03/10 00:22:00;;;;;;;43.28;23.92;;;;;;;7.11;42.26;102218.97;5069977;28;20055;-62
2022/03/10 00:24:27;;;;;;;44.25;23.88;;;;;;;7.05;42.41;102219.06;5069556;28;20463;-64
2022/03/10 00:26:54;;;;;;;47.25;24.08;;;;;;;7.03;42.45;102226.94;5069779;28;20173;-62
2022/03/10 00:29:20;;;;;;;47.13;26.00;;;;;;;7.06;42.40;102218.19;5069211;28;20456;-60
2022/03/10 00:31:47;;;;;;;49.17;24.90;;;;;;;7.06;42.47;102219.06;5069985;28;20068;-61
2022/03/10 00:34:14;;;;;;;44.95;23.75;;;;;;;7.00;42.48;102217.41;5068688;28;20098;-62
2022/03/10 00:36:40;;;;;;;47.03;24.33;;;;;;;6.97;42.86;102217.47;5069271;28;20102;-63
2022/03/10 00:39:07;;;;;;;39.13;22.42;;;;;;;6.94;42.81;102219.28;5069393;28;20052;-63
2022/03/10 00:41:34;;;;;;;44.38;23.42;;;;;;;6.92;42.82;102218.44;5069765;28;20095;-63
2022/03/10 00:44:00;;;;;;;42.47;23.50;;;;;;;6.89;43.03;102228.94;5069706;28;20133;-63
2022/03/10 00:46:27;;;;;;;41.08;23.33;;;;;;;6.86;43.03;102225.47;5070095;28;20056;-63
2022/03/10 00:48:54;;;;;;;43.85;24.10;;;;;;;6.82;43.20;102223.81;5073037;28;20132;-63
2022/03/10 00:51:21;;;;;;;44.42;23.42;;;;;;;6.83;43.28;102227.28;5072085;28;20048;-64
2022/03/10 00:53:47;;;;;;;44.50;25.20;;;;;;;6.80;43.29;102222.97;5072946;28;20044;-64
2022/03/10 00:56:14;;;;;;;42.55;22.48;;;;;;;6.77;43.49;102220.44;5072959;28;20084;-63
2022/03/10 00:58:40;;;;;;;41.15;22.77;;;;;;;6.72;43.65;102217.03;5072985;28;20048;-63
2022/03/10 01:01:10;;;;;;;41.92;23.40;;;;;;;6.66;43.69;102223.19;5072889;28;20076;-64
2022/03/10 01:03:37;;;;;;;42.53;23.42;;;;;;;6.65;43.85;102218.00;5072815;28;20040;-63
2022/03/10 01:06:04;;;;;;;38.80;23.20;;;;;;;6.61;43.67;102221.56;5072576;28;20500;-63
2022/03/10 01:08:30;;;;;;;39.55;23.65;;;;;;;6.61;43.87;102224.16;5071987;28;20045;-64
2022/03/10 01:10:57;;;;;;;41.90;23.80;;;;;;;6.60;43.95;102220.72;5072642;28;20444;-64
2022/03/10 01:13:24;;;;;;;41.85;24.25;;;;;;;6.55;44.04;102217.28;5072667;28;20110;-63
2022/03/10 01:15:50;;;;;;;44.53;24.08;;;;;;;6.54;43.99;102215.59;5072532;28;20094;-63
2022/03/10 01:18:17;;;;;;;40.15;23.40;;;;;;;6.49;44.20;102212.19;5072738;28;20049;-63
2022/03/10 01:20:44;;;;;;;45.92;23.90;;;;;;;6.49;44.62;102214.81;5072559;28;20102;-64
2022/03/10 01:23:13;;;;;;;39.17;23.30;;;;;;;6.44;44.80;102212.25;5071563;28;20059;-63
2022/03/10 01:25:40;;;;;;;41.85;23.05;;;;;;;6.43;44.91;102210.53;5072290;28;20051;-60
2022/03/10 01:28:07;;;;;;;44.42;22.67;;;;;;;6.43;45.00;102212.28;5072271;28;20101;-61
2022/03/10 01:30:33;;;;;;;46.50;23.77;;;;;;;6.41;44.95;102214.06;5072194;28;20086;-61
2022/03/10 01:33:00;;;;;;;42.17;22.95;;;;;;;6.38;45.04;102215.81;5072260;28;20117;-60
2022/03/10 01:35:27;;;;;;;44.53;24.00;;;;;;;6.51;44.70;102219.13;5072466;28;20056;-60
2022/03/10 01:37:53;;;;;;;39.33;22.92;;;;;;;6.49;44.82;102217.41;5072189;28;20048;-64
2022/03/10 01:40:20;;;;;;;43.53;23.38;;;;;;;6.41;45.01;102217.50;5071388;28;20045;-62
2022/03/10 01:42:47;;;;;;;42.15;22.83;;;;;;;6.34;45.03;102219.34;5072177;28;20080;-63
2022/03/10 01:45:15;;;;;;;40.78;22.67;;;;;;;6.33;44.89;102212.41;5072288;28;20056;-63
2022/03/10 01:47:43;;;;;;;42.55;23.17;;;;;;;6.32;45.02;102209.84;5072125;28;20569;-64
2022/03/10 01:50:12;;;;;;;43.05;23.98;;;;;;;6.26;45.09;102200.38;5072194;28;20482;-64
2022/03/10 01:52:40;;;;;;;42.00;23.10;;;;;;;6.17;45.10;102213.53;5072110;28;20098;-64
2022/03/10 01:55:08;;;;;;;41.75;23.52;;;;;;;6.15;45.29;102205.72;5071411;28;20066;-63
2022/03/10 01:57:35;;;;;;;45.13;23.52;;;;;;;6.05;45.45;102207.59;5072218;28;20051;-63
2022/03/10 02:00:04;;;;;;;42.58;22.67;;;;;;;6.02;45.32;102205.06;5072091;28;20106;-64
2022/03/10 02:02:31;;;;;;;44.22;23.80;;;;;;;6.00;45.57;102206.81;5072095;28;20381;-63
2022/03/10 02:04:58;;;;;;;43.20;23.58;;;;;;;5.99;45.43;102205.09;5072052;28;20447;-63
2022/03/10 02:10:16;;;;;;;43.13;24.20;;;;;;;5.94;45.56;102200.78;5071218;28;20094;-63
2022/03/10 02:12:49;;;;;;;43.03;24.33;;;;;;;5.91;45.64;102201.69;5072073;28;20052;-63
2022/03/10 02:18:08;;;;;;;46.25;25.33;;;;;;;5.88;45.54;102197.38;5072115;28;20258;-63
2022/03/10 02:20:36;;;;;;;48.63;24.48;;;;;;;5.90;45.38;102199.97;5071777;28;20489;-62
2022/03/10 02:23:04;;;;;;;44.22;25.13;;;;;;;5.90;45.63;102197.38;5071975;28;20045;-61
2022/03/10 02:25:31;;;;;;;45.55;24.75;;;;;;;5.91;45.59;102193.03;5071792;28;20044;-61
2022/03/10 02:27:59;;;;;;;44.25;25.00;;;;;;;5.92;45.74;102190.41;5070755;28;20041;-61
2022/03/10 02:30:30;;;;;;;45.05;25.98;;;;;;;5.97;45.40;102190.34;5071703;28;20556;-61
2022/03/10 02:32:58;;;;;;;45.38;25.58;;;;;;;5.95;45.30;102194.72;5071704;28;20091;-61
2022/03/10 02:35:25;;;;;;;42.17;23.77;;;;;;;5.90;45.38;102189.53;5071916;28;20389;-60
2022/03/10 02:37:52;;;;;;;42.78;23.75;;;;;;;5.81;45.50;102190.53;5071862;28;20048;-61
2022/03/10 02:40:19;;;;;;;39.80;23.52;;;;;;;5.76;45.57;102202.75;5071805;28;20044;-60
2022/03/10 02:42:46;;;;;;;43.78;23.38;;;;;;;5.67;45.73;102195.91;5070670;28;20059;-61
2022/03/10 02:45:12;;;;;;;42.53;22.95;;;;;;;5.70;45.73;102197.63;5071741;28;20049;-61
2022/03/10 02:47:39;;;;;;;43.05;22.65;;;;;;;5.71;45.46;102195.03;5071589;28;20381;-61
2022/03/10 02:50:07;;;;;;;45.78;23.10;;;;;;;5.72;45.42;102193.25;5071850;28;20459;-60
2022/03/10 02:52:35;;;;;;;44.33;25.20;;;;;;;5.68;45.53;102200.25;5074609;28;20048;-61
2022/03/10 02:55:04;;;;;;;45.67;23.98;;;;;;;5.61;45.57;102195.13;5075548;28;20113;-60
2022/03/10 02:57:31;;;;;;;44.63;24.27;;;;;;;5.53;45.71;102201.28;5075274;28;20052;-60
2022/03/10 03:00:02;;;;;;;42.85;24.92;;;;;;;5.49;45.75;102207.44;5074233;28;20063;-61
2022/03/10 03:02:29;;;;;;;41.95;22.73;;;;;;;5.50;45.74;102208.31;5075150;28;20485;-61
2022/03/10 03:04:56;;;;;;;44.22;23.95;;;;;;;5.49;45.74;102209.19;5075054;28;20067;-61
2022/03/10 03:07:24;;;;;;;52.28;24.67;;;;;;;5.44;45.92;102208.38;5074968;28;20056;-61
2022/03/10 03:09:50;;;;;;;44.17;24.98;;;;;;;5.45;45.89;102217.91;5075002;28;20049;-60
2022/03/10 03:12:17;;;;;;;48.58;25.52;;;;;;;5.44;46.06;102214.44;5075110;28;20044;-62
2022/03/10 03:14:44;;;;;;;43.42;24.15;;;;;;;5.42;45.83;102213.56;5074288;28;20054;-60
2022/03/10 03:17:10;;;;;;;43.95;25.40;;;;;;;5.41;46.04;102214.47;5075153;28;20398;-61
2022/03/10 03:19:37;;;;;;;47.53;23.67;;;;;;;5.35;46.14;102215.38;5074827;28;20401;-61
2022/03/10 03:22:04;;;;;;;44.95;23.80;;;;;;;5.33;46.12;102213.69;5074860;28;20040;-61
2022/03/10 03:24:31;;;;;;;46.35;25.98;;;;;;;5.34;46.09;102216.25;5074822;28;20049;-60
2022/03/10 03:26:58;;;;;;;45.90;24.65;;;;;;;5.33;45.74;102227.56;5074478;28;20056;-61
2022/03/10 03:29:25;;;;;;;48.60;24.67;;;;;;;5.28;46.25;102224.16;5073441;28;20086;-61
2022/03/10 03:31:52;;;;;;;48.22;24.08;;;;;;;5.26;46.09;102215.50;5074563;28;20054;-60
2022/03/10 03:34:19;;;;;;;46.97;24.17;;;;;;;5.23;46.15;102212.91;5074720;28;20481;-61
2022/03/10 03:36:45;;;;;;;45.03;24.63;;;;;;;5.26;46.11;102220.69;5074441;28;20044;-60
2022/03/10 03:39:13;;;;;;;43.15;24.38;;;;;;;5.31;45.88;102216.31;5074551;28;20126;-61
2022/03/10 03:41:40;;;;;;;49.33;24.77;;;;;;;5.33;45.93;102218.88;5074435;28;20064;-61
2022/03/10 03:44:09;;;;;;;44.30;24.88;;;;;;;5.31;45.79;102224.13;5074370;28;20074;-60
2022/03/10 03:46:37;;;;;;;42.53;23.80;;;;;;;5.28;45.85;102220.69;5074173;28;20041;-60
2022/03/10 03:49:10;;;;;;;41.35;23.75;;;;;;;5.21;45.91;102219.88;5073569;28;20052;-61
2022/03/10 03:51:37;;;;;;;47.40;23.85;;;;;;;5.12;46.06;102220.84;5074279;28;20090;-60
2022/03/10 03:54:05;;;;;;;40.00;23.42;;;;;;;5.06;46.13;102219.16;5074367;28;20079;-60
2022/03/10 03:56:32;;;;;;;46.45;23.92;;;;;;;5.06;46.04;102219.16;5074158;28;20072;-60
2022/03/10 03:58:59;;;;;;;42.92;24.17;;;;;;;5.07;46.18;102213.06;5074218;28;20055;-60
2022/03/10 04:01:26;;;;;;;41.03;23.33;;;;;;;5.06;46.04;102215.69;5073921;28;20048;-60
2022/03/10 04:03:53;;;;;;;41.75;22.85;;;;;;;5.03;45.90;102219.19;5067341;28;20415;-60
2022/03/10 04:06:19;;;;;;;43.17;22.80;;;;;;;5.01;45.97;102220.94;5070703;28;20052;-60
2022/03/10 04:08:46;;;;;;;46.47;24.60;;;;;;;4.99;46.07;102220.09;5070441;28;20416;-60
2022/03/10 04:11:16;;;;;;;44.97;24.75;;;;;;;4.97;46.07;102218.41;5070523;28;20044;-60
2022/03/10 04:13:42;;;;;;;44.42;23.70;;;;;;;4.93;46.26;102214.97;5070295;28;20057;-60
2022/03/10 04:16:09;;;;;;;43.35;23.70;;;;;;;4.95;46.19;102215.81;5070547;28;20056;-60
2022/03/10 04:18:36;;;;;;;44.75;24.13;;;;;;;4.93;46.18;102219.28;5069602;28;20048;-61
2022/03/10 04:21:03;;;;;;;47.65;24.08;;;;;;;4.91;46.11;102219.28;5070500;28;20140;-61
2022/03/10 04:23:31;;;;;;;40.47;23.00;;;;;;;4.94;46.01;102218.41;5070264;28;20045;-61
2022/03/10 04:25:58;;;;;;;42.72;23.23;;;;;;;4.94;46.18;102208.00;5069907;28;20044;-60
2022/03/10 04:28:24;;;;;;;47.10;23.92;;;;;;;4.94;46.29;102213.19;5069954;28;20071;-60
2022/03/10 04:30:51;;;;;;;49.15;23.77;;;;;;;4.91;46.16;102219.28;5069917;28;20122;-60
2022/03/10 04:33:21;;;;;;;48.67;23.83;;;;;;;4.93;46.23;102224.47;5070190;28;20412;-60
2022/03/10 04:35:50;;;;;;;49.22;23.55;;;;;;;4.92;46.14;102223.63;5068805;28;20044;-60
2022/03/10 04:38:17;;;;;;;41.53;22.70;;;;;;;4.86;46.44;102223.69;5070025;28;20051;-60
2022/03/10 04:40:44;;;;;;;43.35;23.67;;;;;;;4.83;46.29;102226.31;5070199;28;20416;-61
2022/03/10 04:43:11;;;;;;;42.20;23.17;;;;;;;4.79;46.51;102225.47;5069921;28;20106;-60
2022/03/10 04:45:38;;;;;;;57.85;26.17;;;;;;;4.82;46.30;102235.00;5069978;28;20059;-61
2022/03/10 04:48:06;;;;;;;52.53;23.88;;;;;;;4.78;46.30;102226.34;5069988;28;20055;-61
2022/03/10 04:50:34;;;;;;;51.05;24.52;;;;;;;4.78;46.21;102225.50;5069833;28;20047;-61
2022/03/10 04:53:01;;;;;;;46.50;23.88;;;;;;;4.74;46.36;102230.72;5068733;28;20114;-60
2022/03/10 04:55:27;;;;;;;51.28;23.52;;;;;;;4.74;46.34;102228.09;5069771;28;20477;-61
2022/03/10 04:57:54;;;;;;;46.65;23.23;;;;;;;4.73;46.42;102222.94;5069350;28;20056;-60
2022/03/10 05:00:21;;;;;;;45.78;22.70;;;;;;;4.68;46.34;102227.31;5069606;28;20102;-61
2022/03/10 05:02:48;;;;;;;52.47;23.83;;;;;;;4.72;46.31;102226.41;5069277;28;20534;-60
2022/03/10 05:05:18;;;;;;;42.60;22.10;;;;;;;4.72;46.44;102224.69;5069412;28;20053;-61
2022/03/10 05:07:45;;;;;;;47.42;22.38;;;;;;;4.67;46.56;102229.06;5069143;28;20048;-60
2022/03/10 05:10:13;;;;;;;47.67;22.67;;;;;;;4.66;46.62;102232.53;5068447;28;20049;-61
2022/03/10 05:12:54;;;;;;;42.08;23.23;;;;;;;4.65;46.61;102232.53;5069423;28;20044;-62
2022/03/10 05:15:23;;;;;;;47.45;23.67;;;;;;;4.62;46.73;102232.56;5069091;28;20048;-61
2022/03/10 05:17:50;;;;;;;47.25;22.30;;;;;;;4.58;46.90;102229.09;5069181;28;20059;-63
2022/03/10 05:20:18;;;;;;;49.33;24.10;;;;;;;4.64;46.93;102239.47;5069177;28;20095;-63
2022/03/10 05:22:47;;;;;;;40.60;22.55;;;;;;;4.65;47.05;102241.19;5069056;28;20041;-63
2022/03/10 05:25:15;;;;;;;49.97;23.88;;;;;;;4.65;47.06;102243.78;5068308;28;20053;-61
2022/03/10 05:27:43;;;;;;;48.67;23.02;;;;;;;4.68;47.23;102253.31;5068217;28;20084;-61
2022/03/10 05:30:11;;;;;;;39.90;22.67;;;;;;;4.65;47.33;102249.00;5069120;28;20485;-60
2022/03/10 05:32:38;;;;;;;44.50;21.98;;;;;;;4.59;47.54;102259.44;5068253;28;20451;-63
2022/03/10 05:35:06;;;;;;;57.30;23.13;;;;;;;4.54;47.81;102267.25;5069272;28;20105;-61
2022/03/10 05:37:36;;;;;;;43.42;22.67;;;;;;;4.54;47.67;102271.59;5069167;28;20101;-62
2022/03/10 05:40:06;;;;;;;47.53;22.65;;;;;;;4.51;47.67;102261.25;5069063;28;20473;-63
2022/03/10 05:42:32;;;;;;;46.40;22.25;;;;;;;4.48;47.66;102262.13;5068155;28;20045;-62
2022/03/10 05:44:59;;;;;;;43.13;21.30;;;;;;;4.48;47.74;102269.91;5068913;28;20837;-63
2022/03/10 05:47:26;;;;;;;51.95;23.55;;;;;;;4.45;47.71;102267.31;5069005;28;20064;-63
2022/03/10 05:49:52;;;;;;;45.03;22.83;;;;;;;4.45;47.81;102269.06;5068798;28;20045;-62
2022/03/10 05:52:19;;;;;;;53.85;23.42;;;;;;;4.43;47.81;102266.47;5068660;28;20068;-63
2022/03/10 05:54:50;;;;;;;45.78;24.13;;;;;;;4.43;47.89;102268.22;5068824;28;20048;-63
2022/03/10 05:57:17;;;;;;;41.30;21.38;;;;;;;4.44;47.97;102264.75;5067841;28;20109;-62
2022/03/10 05:59:45;;;;;;;40.28;21.90;;;;;;;4.50;47.86;102267.31;5068847;28;20049;-62
2022/03/10 06:02:15;;;;;;;44.13;22.27;;;;;;;4.57;47.95;102269.84;5069053;28;20412;-63
2022/03/10 06:04:53;;;;;;;16.23;9.50;;;;;;;5.23;48.33;102270.16;5068698;28;20464;-63
2022/03/10 06:07:22;;;;;;;49.53;22.13;;;;;;;5.50;49.29;102266.44;5068171;28;20084;-63
2022/03/10 06:09:48;;;;;;;47.45;21.83;;;;;;;5.27;49.94;102265.78;5068924;28;20048;-66
2022/03/10 06:12:23;;;;;;;40.45;22.85;;;;;;;5.17;49.42;102263.28;5068681;28;20052;-61
2022/03/10 06:15:02;;;;;;;43.03;23.13;;;;;;;5.12;49.34;102266.84;5067592;28;20049;-62
2022/03/10 06:17:29;;;;;;;43.10;21.90;;;;;;;5.09;49.10;102266.84;5068256;28;20044;-63
2022/03/10 06:19:57;;;;;;;42.80;22.38;;;;;;;5.08;48.95;102276.41;5068364;28;20128;-63
2022/03/10 06:22:27;;;;;;;44.55;21.70;;;;;;;5.05;48.83;102276.41;5068758;28;20049;-66
2022/03/10 06:24:54;;;;;;;45.33;22.90;;;;;;;5.03;48.90;102276.44;5068537;28;20052;-63
2022/03/10 06:27:22;;;;;;;47.78;23.25;;;;;;;5.01;48.92;102280.78;5071291;28;20056;-63
2022/03/10 06:29:50;;;;;;;45.05;22.90;;;;;;;5.01;48.88;102290.31;5071264;28;20045;-67
2022/03/10 06:32:18;;;;;;;49.35;22.63;;;;;;;5.06;48.77;102289.41;5071386;28;20040;-62
2022/03/10 06:34:46;;;;;;;47.67;22.63;;;;;;;5.04;48.78;102291.16;5072356;28;20048;-62
2022/03/10 06:37:13;;;;;;;45.78;23.83;;;;;;;5.04;49.08;102285.97;5072350;28;20044;-61
2022/03/10 06:39:40;;;;;;;47.17;24.00;;;;;;;5.06;49.06;102289.41;5072386;28;20048;-62
2022/03/10 06:42:08;;;;;;;45.25;23.98;;;;;;;5.11;49.17;102286.75;5072386;28;20053;-62
2022/03/10 06:44:36;;;;;;;42.22;23.15;;;;;;;5.13;49.09;102286.75;5071452;28;20044;-62
2022/03/10 06:47:12;;;;;;;48.53;23.55;;;;;;;5.19;48.92;102297.09;5070781;28;20408;-60
2022/03/10 06:49:39;;;;;;;47.78;24.83;;;;;;;5.25;49.26;102293.59;5069013;28;20036;-61
2022/03/10 06:52:08;;;;;;;46.85;24.10;;;;;;;5.28;49.03;102297.03;5072285;28;20049;-64
2022/03/10 06:54:35;;;;;;;43.28;19.27;;;;;;;5.60;50.20;102300.19;5071305;28;20049;-60
2022/03/10 06:57:02;;;;;;;50.00;24.70;;;;;;;5.79;49.35;102303.44;5071905;28;20443;-60
2022/03/10 06:59:28;;;;;;;46.55;24.08;;;;;;;5.72;49.59;102303.50;5071028;28;20041;-63
2022/03/10 07:01:55;;;;;;;45.42;24.88;;;;;;;5.79;49.62;102308.66;5071741;28;20055;-60
2022/03/10 07:04:22;;;;;;;45.00;24.10;;;;;;;5.80;49.19;102299.97;5071203;28;20059;-65
2022/03/10 07:06:49;;;;;;;44.70;23.38;;;;;;;5.84;49.19;102294.72;5071309;28;20049;-61
2022/03/10 07:09:16;;;;;;;44.63;23.55;;;;;;;6.17;48.62;102300.41;5071886;28;20048;-59
2022/03/10 07:11:43;;;;;;;49.42;24.52;;;;;;;6.37;47.94;102302.75;5070719;28;20044;-60
2022/03/10 07:14:10;;;;;;;51.60;25.80;;;;;;;6.41;47.50;102305.31;5071508;28;20059;-63
2022/03/10 07:16:37;;;;;;;55.25;29.02;;;;;;;6.54;47.26;102306.88;5070953;28;20071;-63
2022/03/10 07:19:08;;;;;;;50.45;27.75;;;;;;;6.67;46.85;102303.19;5070441;28;20051;-68
2022/03/10 07:21:37;;;;;;;52.10;28.17;;;;;;;6.90;46.18;102308.94;5070125;28;20044;-63
2022/03/10 07:24:05;;;;;;;51.97;27.42;;;;;;;7.06;45.92;102304.31;5070761;28;20048;-61
2022/03/10 07:26:33;;;;;;;49.55;27.23;;;;;;;7.26;45.78;102301.38;5068117;28;20489;-62
2022/03/10 07:29:00;;;;;;;55.63;27.45;;;;;;;7.41;45.20;102301.09;5068503;28;20044;-66
2022/03/10 07:31:28;;;;;;;47.22;25.30;;;;;;;7.58;44.98;102311.25;5069923;28;20047;-61
2022/03/10 07:33:56;;;;;;;48.17;26.83;;;;;;;7.49;45.01;102311.41;5068280;28;20583;-63
2022/03/10 07:36:24;;;;;;;46.00;26.48;;;;;;;7.54;44.71;102316.56;5070806;28;20587;-62
2022/03/10 07:38:50;;;;;;;49.45;26.17;;;;;;;7.66;44.24;102318.94;5068352;28;20568;-62
2022/03/10 07:41:17;;;;;;;49.25;27.33;;;;;;;7.75;44.35;102312.69;5070866;28;20758;-62
2022/03/10 07:43:44;;;;;;;48.22;27.42;;;;;;;7.83;44.27;102319.47;5076222;28;20419;-63
2022/03/10 07:46:11;;;;;;;54.17;28.73;;;;;;;8.02;44.05;102306.03;5078074;28;20565;-63
2022/03/10 07:48:38;;;;;;;47.97;27.10;;;;;;;8.11;43.50;102302.34;5063637;28;20079;-62
2022/03/10 07:51:05;;;;;;;28.23;14.15;;;;;;;8.40;43.51;102314.81;5056825;28;20048;-64
2022/03/10 07:53:32;;;;;;;55.25;28.65;;;;;;;8.55;44.56;102307.56;5055459;28;20136;-63
2022/03/10 07:56:01;;;;;;;53.10;28.38;;;;;;;8.61;44.42;102305.66;5056104;28;20181;-63
2022/03/10 07:58:29;;;;;;;58.20;29.05;;;;;;;8.70;44.05;102301.06;5058146;28;20056;-63
2022/03/10 08:00:57;;;;;;;52.47;28.55;;;;;;;8.66;43.86;102301.16;5055303;28;20530;-63
2022/03/10 08:03:25;;;;;;;52.13;26.85;;;;;;;8.93;43.44;102306.63;5055569;28;20110;-63
2022/03/10 08:05:53;;;;;;;53.47;26.67;;;;;;;9.09;42.92;102307.13;5056424;28;20045;-63
2022/03/10 08:08:20;;;;;;;47.33;28.08;;;;;;;9.36;42.36;102309.94;5070296;28;20045;-63
2022/03/10 08:10:47;;;;;;;50.55;26.88;;;;;;;9.58;42.02;102307.56;5069945;28;20053;-63
2022/03/10 08:13:14;;;;;;;61.33;28.40;;;;;;;9.75;41.78;102306.25;5070165;28;20048;-63
2022/03/10 08:15:42;;;;;;;51.00;30.05;;;;;;;9.94;41.48;102299.59;5070197;28;20045;-66
2022/03/10 08:18:10;;;;;;;49.38;27.55;;;;;;;10.02;41.02;102304.63;5070355;28;20052;-63
2022/03/10 08:20:39;;;;;;;51.95;26.90;;;;;;;10.21;40.54;102306.69;5069477;28;20048;-62
2022/03/10 08:23:06;;;;;;;50.90;26.77;;;;;;;10.36;40.23;102305.41;5069221;28;20381;-62
2022/03/10 08:25:36;;;;;;;52.88;26.90;;;;;;;10.50;39.82;102300.59;5069994;28;20489;-63
2022/03/10 08:28:04;;;;;;;22.02;13.25;;;;;;;10.86;39.54;102304.72;5069849;28;20461;-63
2022/03/10 08:30:31;;;;;;;22.02;12.55;;;;;;;11.60;40.45;102308.31;5068962;28;20463;-64
2022/03/10 08:32:57;;;;;;;39.90;23.35;;;;;;;11.64;41.02;102302.94;5068633;28;20049;-69
2022/03/10 08:35:24;;;;;;;44.95;25.50;;;;;;;11.67;40.23;102303.69;5068988;28;20489;-62
2022/03/10 08:37:51;;;;;;;57.53;29.92;;;;;;;11.74;39.48;102302.56;5068199;28;20045;-62
2022/03/10 08:40:19;;;;;;;41.08;23.02;;;;;;;11.68;38.98;102294.03;5068615;28;20049;-70
2022/03/10 08:42:47;;;;;;;44.45;23.85;;;;;;;11.90;38.04;102299.38;5068347;28;20485;-62
2022/03/10 08:45:18;;;;;;;59.08;31.35;;;;;;;11.92;37.61;102308.03;5067541;28;20054;-60
2022/03/10 08:47:45;;;;;;;47.38;26.13;;;;;;;12.09;37.01;102289.88;5068409;28;20508;-60
2022/03/10 08:50:19;;;;;;;43.95;24.75;;;;;;;12.23;36.60;102291.13;5064512;28;20122;-66
2022/03/10 08:52:46;;;;;;;44.10;23.63;;;;;;;12.41;36.11;102290.41;5067751;28;20049;-65
2022/03/10 08:55:13;;;;;;;43.22;23.98;;;;;;;12.52;35.93;102276.81;5067334;28;20110;-61
2022/03/10 08:57:40;;;;;;;41.88;23.40;;;;;;;12.61;35.61;102275.59;5067906;28;20082;-61
2022/03/10 09:00:10;;;;;;;36.20;22.52;;;;;;;12.67;35.42;102272.72;5067741;28;20091;-60
2022/03/10 09:02:37;;;;;;;37.67;22.98;;;;;;;12.89;34.87;102269.19;5068371;28;20059;-63
2022/03/10 09:05:04;;;;;;;46.65;23.52;;;;;;;13.04;34.44;102271.19;5068772;28;20485;-61
2022/03/10 09:07:31;;;;;;;40.22;21.92;;;;;;;13.21;34.18;102253.78;5068188;28;20044;-63
2022/03/10 09:09:57;;;;;;;37.83;22.15;;;;;;;13.32;33.75;102255.94;5068218;28;20044;-62
2022/03/10 09:12:24;;;;;;;35.45;21.38;;;;;;;13.43;33.54;102253.72;5067135;28;20041;-70
2022/03/10 09:14:51;;;;;;;38.13;21.90;;;;;;;13.49;33.29;102249.97;5068425;28;20134;-66
2022/03/10 09:17:17;;;;;;;37.15;21.42;;;;;;;13.66;32.97;102257.09;5068431;28;20181;-69
2022/03/10 09:19:44;;;;;;;40.47;22.90;;;;;;;13.90;32.45;102251.63;5068121;28;20076;-62
2022/03/10 09:22:12;;;;;;;43.60;23.85;;;;;;;14.11;32.36;102247.97;5067717;28;20044;-62
2022/03/10 09:24:39;;;;;;;38.65;22.08;;;;;;;14.29;32.06;102243.59;5068031;28;20183;-70
2022/03/10 09:27:06;;;;;;;42.63;22.67;;;;;;;14.31;32.20;102241.75;5068178;28;20047;-62
2022/03/10 09:29:33;;;;;;;40.45;23.50;;;;;;;14.52;31.89;102242.50;5028466;28;1108840;-63
2022/03/10 09:31:59;;;;;;;37.35;23.50;;;;;;;14.67;31.60;102238.25;5068296;28;20105;-63
2022/03/10 09:34:26;;;;;;;45.92;24.10;;;;;;;14.80;31.61;102237.63;5068868;28;20044;-63
2022/03/10 09:36:53;;;;;;;42.80;24.73;;;;;;;14.86;31.28;102234.69;5068678;28;20443;-62
2022/03/10 09:39:20;;;;;;;39.85;24.38;;;;;;;15.04;31.23;102242.63;5068794;28;20063;-63
2022/03/10 09:41:47;;;;;;;38.97;24.05;;;;;;;15.30;30.83;102247.41;5068434;28;20083;-69
2022/03/10 09:44:19;;;;;;;43.40;25.23;;;;;;;15.50;30.72;102248.13;5068284;28;20071;-63
2022/03/10 09:46:50;;;;;;;42.22;24.33;;;;;;;15.66;30.58;102234.94;5067515;28;20456;-69
2022/03/10 09:49:20;;;;;;;42.13;24.45;;;;;;;15.78;30.40;102241.34;5068712;28;20405;-62
2022/03/10 09:51:49;;;;;;;42.95;25.85;;;;;;;15.98;30.11;102235.81;5068333;28;20075;-64
2022/03/10 09:54:16;;;;;;;49.05;24.48;;;;;;;16.11;30.16;102227.19;5068478;28;20052;-63
2022/03/10 09:56:43;;;;;;;45.20;25.65;;;;;;;16.13;29.79;102231.47;5067890;28;20048;-63
2022/03/10 09:59:12;;;;;;;40.63;25.35;;;;;;;16.36;29.66;102229.31;5068054;28;20055;-67
2022/03/10 10:01:39;;;;;;;43.95;25.65;;;;;;;16.57;28.98;102231.66;5066000;28;20542;-66
2022/03/10 10:04:06;;;;;;;44.10;26.38;;;;;;;16.73;28.94;102228.97;5067773;28;20127;-63
2022/03/10 10:07:03;;;;;;;42.53;25.23;;;;;;;16.80;29.29;102231.16;5068087;28;20123;-63
2022/03/10 10:09:47;;;;;;;44.70;26.13;;;;;;;16.94;28.82;102224.22;5067493;28;20049;-63
2022/03/10 10:12:15;;;;;;;42.08;24.58;;;;;;;17.12;28.64;102225.75;5067401;28;20049;-62
2022/03/10 10:14:46;;;;;;;42.50;25.45;;;;;;;17.17;28.68;102220.19;5067868;28;20123;-62
2022/03/10 10:17:14;;;;;;;46.13;26.77;;;;;;;17.26;28.65;102216.94;5066795;28;20519;-62
2022/03/10 10:19:42;;;;;;;43.47;26.35;;;;;;;17.51;28.55;102219.88;5068143;28;20041;-63
2022/03/10 10:22:29;;;;;;;44.15;26.08;;;;;;;17.73;28.21;102209.63;5066953;28;20140;-62
2022/03/10 10:24:59;;;;;;;47.88;28.40;;;;;;;17.78;28.29;102201.38;5068247;28;20071;-70
2022/03/10 10:27:28;;;;;;;46.85;27.05;;;;;;;17.96;28.21;102202.00;5068130;28;20049;-63
2022/03/10 10:29:57;;;;;;;49.72;28.85;;;;;;;17.92;28.26;102201.31;5067954;28;20045;-68
2022/03/10 10:32:33;;;;;;;46.33;26.92;;;;;;;18.15;28.09;102201.66;5068061;28;20098;-66
2022/03/10 10:35:09;;;;;;;42.03;26.35;;;;;;;18.25;27.89;102208.06;5067469;28;20040;-68
2022/03/10 10:37:38;;;;;;;43.78;26.70;;;;;;;18.32;28.08;102202.34;5068179;28;20064;-63
2022/03/10 10:40:07;;;;;;;43.83;25.33;;;;;;;18.44;28.05;102201.53;5068293;28;20049;-63
2022/03/10 10:42:37;;;;;;;41.45;25.35;;;;;;;18.52;27.48;102198.38;5067926;28;20041;-70
2022/03/10 10:45:27;;;;;;;46.55;27.92;;;;;;;18.61;27.50;102200.41;5067746;28;20436;-63
2022/03/10 10:48:08;;;;;;;46.10;26.65;;;;;;;18.77;27.21;102203.72;5067881;28;20496;-63
2022/03/10 10:50:38;;;;;;;41.78;26.10;;;;;;;18.90;27.14;102197.59;5067802;28;20044;-63
2022/03/10 10:53:06;;;;;;;33.95;19.30;;;;;;;19.00;27.24;102195.16;5065464;28;20045;-65
2022/03/10 10:55:41;;;;;;;29.33;18.67;;;;;;;19.18;27.61;102193.03;5068185;28;20098;-63
2022/03/10 10:58:13;;;;;;;;;;;;;;;19.33;27.48;102191.09;5068347;28;20076;-64
2022/03/10 11:00:49;;;;;;;28.23;18.35;;;;;;;19.47;28.02;102190.94;5067370;28;20368;-63
2022/03/10 11:03:26;;;;;;;32.47;20.05;;;;;;;19.58;27.72;102175.06;5063422;28;20044;-65
2022/03/10 11:05:54;;;;;;;30.45;17.38;;;;;;;19.61;27.58;102178.47;5067878;28;20501;-73
2022/03/10 11:08:22;;;;;;;26.48;17.30;;;;;;;19.71;27.52;102172.34;5066890;28;20140;-65
2022/03/10 11:10:50;;;;;;;27.25;16.92;;;;;;;19.82;27.63;102168.03;5067510;28;20057;-69
2022/03/10 11:13:21;;;;;;;32.58;20.10;;;;;;;19.98;27.37;102159.81;5069533;28;20040;-63
2022/03/10 11:15:51;;;;;;;40.33;24.80;;;;;;;20.00;27.17;102156.06;5070877;28;20435;-63
2022/03/10 11:18:21;;;;;;;35.55;23.58;;;;;;;20.15;25.93;102156.75;5069098;28;20496;-64
2022/03/10 11:20:53;;;;;;;38.60;23.80;;;;;;;20.28;25.59;102151.34;5083895;28;20052;-63
2022/03/10 11:23:43;;;;;;;41.60;24.48;;;;;;;20.26;25.54;102147.09;5070841;28;20493;-62
2022/03/10 11:26:39;;;;;;;42.63;25.63;;;;;;;20.26;25.11;102149.75;5070496;28;20040;-64